Time;durP1;ratioP1;P1;durP2;ratioP2;P2;SDS_P1;SDS_P2;PMS_P1;PMS_P2;Temp;Humidity;BMP_temperature;BMP_pressure;BME280_temperature;BME280_humidity;BME280_pressure;Samples;Min_cycle;Max_cycle;Signal;HPM_P1;HPM_P2
2023/12/08 00:02:06;;;;;;;20.13;10.27;;;2.80;99.90;;;;;;4995244;28;20587;-73
2023/12/08 00:04:31;;;;;;;16.90;9.87;;;2.70;99.90;;;;;;4997725;28;20249;-74
2023/12/08 00:06:57;;;;;;;19.37;9.83;;;2.70;99.90;;;;;;4998847;28;20223;-74
2023/12/08 00:09:22;;;;;;;14.37;7.80;;;2.60;99.90;;;;;;4998475;28;20305;-73
2023/12/08 00:11:48;;;;;;;20.83;10.23;;;2.60;99.90;;;;;;4986444;28;20223;-74
2023/12/08 00:14:14;;;;;;;17.77;9.90;;;2.60;99.90;;;;;;5001350;28;20233;-74
2023/12/08 00:16:41;;;;;;;21.00;9.47;;;2.60;99.90;;;;;;4996600;28;20215;-73
2023/12/08 00:19:07;;;;;;;18.63;10.37;;;2.60;99.90;;;;;;4995399;28;20468;-73
2023/12/08 00:21:33;;;;;;;15.60;8.90;;;2.70;99.90;;;;;;4997283;28;20452;-74
2023/12/08 00:23:58;;;;;;;15.93;8.80;;;2.60;99.90;;;;;;4997641;28;20463;-74
2023/12/08 00:26:24;;;;;;;15.80;9.17;;;2.60;99.90;;;;;;4990463;28;20297;-73
2023/12/08 00:28:50;;;;;;;15.33;9.10;;;2.60;99.90;;;;;;5005648;28;20762;-73
2023/12/08 00:31:15;;;;;;;14.47;9.03;;;2.60;99.90;;;;;;4994614;28;20696;-73
2023/12/08 00:33:41;;;;;;;18.70;9.47;;;2.70;99.90;;;;;;5001346;28;20228;-73
2023/12/08 00:36:15;;;;;;;15.40;9.60;;;2.60;99.90;;;;;;4993451;28;20271;-74
2023/12/08 00:38:41;;;;;;;15.00;7.87;;;2.70;99.90;;;;;;5003046;28;20233;-73
2023/12/08 00:41:08;;;;;;;17.40;8.50;;;2.70;99.90;;;;;;4999672;28;20449;-74
2023/12/08 00:43:34;;;;;;;13.17;8.17;;;2.70;99.90;;;;;;5002188;28;20723;-73
2023/12/08 00:46:00;;;;;;;19.60;10.90;;;2.70;99.90;;;;;;4998637;28;20473;-74
2023/12/08 00:48:25;;;;;;;16.43;8.20;;;2.70;99.90;;;;;;4998691;28;20305;-73
2023/12/08 00:50:51;;;;;;;20.43;9.37;;;2.70;99.90;;;;;;5005011;28;20700;-75
2023/12/08 00:53:16;;;;;;;12.47;8.13;;;2.70;99.90;;;;;;4995079;28;20210;-74
2023/12/08 00:55:42;;;;;;;18.20;8.47;;;2.70;99.90;;;;;;5000680;28;20217;-73
2023/12/08 00:58:08;;;;;;;15.77;7.70;;;2.70;99.90;;;;;;5005444;28;20227;-74
2023/12/08 01:00:33;;;;;;;16.63;8.43;;;2.70;99.90;;;;;;5006257;28;20225;-76
2023/12/08 01:02:59;;;;;;;20.40;10.10;;;2.70;99.90;;;;;;5005874;28;20218;-74
2023/12/08 01:05:25;;;;;;;20.00;9.47;;;2.80;99.90;;;;;;5001489;28;20257;-74
2023/12/08 01:07:50;;;;;;;12.70;7.27;;;2.80;99.90;;;;;;4980092;28;20219;-72
2023/12/08 01:10:16;;;;;;;14.10;8.30;;;2.80;99.90;;;;;;5001211;28;20225;-74
2023/12/08 01:12:43;;;;;;;14.43;8.17;;;2.80;99.90;;;;;;4992939;28;20286;-74
2023/12/08 01:15:09;;;;;;;10.50;6.90;;;2.80;99.90;;;;;;5003872;28;20313;-74
2023/12/08 01:17:35;;;;;;;14.83;8.30;;;2.80;99.90;;;;;;5005505;28;20461;-74
2023/12/08 01:20:01;;;;;;;13.17;7.27;;;2.80;99.90;;;;;;5003264;28;20483;-74
2023/12/08 01:22:27;;;;;;;16.63;8.90;;;2.80;99.90;;;;;;5013550;28;20219;-74
2023/12/08 01:24:56;;;;;;;18.70;8.87;;;2.80;99.90;;;;;;5002638;28;20230;-74
2023/12/08 01:27:22;;;;;;;16.57;8.90;;;2.70;99.90;;;;;;5001807;28;20466;-74
2023/12/08 01:29:47;;;;;;;15.20;8.13;;;2.80;99.90;;;;;;4989506;28;20461;-74
2023/12/08 01:32:13;;;;;;;13.77;7.67;;;2.80;99.90;;;;;;4998927;28;20448;-73
2023/12/08 01:34:39;;;;;;;16.80;8.33;;;2.80;99.90;;;;;;4996702;28;20241;-74
2023/12/08 01:37:04;;;;;;;15.70;8.60;;;2.80;99.90;;;;;;5001726;28;20219;-74
2023/12/08 01:39:30;;;;;;;14.17;8.40;;;2.80;99.90;;;;;;4987951;28;20284;-73
2023/12/08 01:41:56;;;;;;;13.93;8.00;;;2.80;99.90;;;;;;5001155;28;20248;-74
2023/12/08 01:44:22;;;;;;;14.00;8.33;;;2.80;99.90;;;;;;4998268;28;20723;-74
2023/12/08 01:46:48;;;;;;;16.57;8.50;;;2.90;99.90;;;;;;5006525;28;20218;-73
2023/12/08 01:49:15;;;;;;;13.77;7.87;;;2.80;99.90;;;;;;4997689;28;20226;-73
2023/12/08 01:51:42;;;;;;;14.43;8.63;;;2.80;99.90;;;;;;5022785;28;20464;-74
2023/12/08 01:54:08;;;;;;;13.30;8.00;;;2.80;99.90;;;;;;5000695;28;20504;-74
2023/12/08 01:56:34;;;;;;;17.03;8.60;;;2.80;99.90;;;;;;5010308;28;20493;-73
2023/12/08 01:58:59;;;;;;;13.17;8.10;;;2.90;99.90;;;;;;5004944;28;20470;-74
2023/12/08 02:01:26;;;;;;;16.50;9.03;;;2.80;99.90;;;;;;5000615;28;20698;-74
2023/12/08 02:03:52;;;;;;;19.40;10.40;;;2.80;99.90;;;;;;5005691;28;20607;-73
2023/12/08 02:06:17;;;;;;;13.90;7.50;;;2.80;99.90;;;;;;5005921;28;20442;-74
2023/12/08 02:08:46;;;;;;;19.37;9.73;;;2.80;99.90;;;;;;5002839;28;21009;-73
2023/12/08 02:11:13;;;;;;;17.93;8.27;;;2.80;99.90;;;;;;5004456;28;20241;-73
2023/12/08 02:13:40;;;;;;;17.03;8.70;;;2.80;99.90;;;;;;4993183;28;20478;-73
2023/12/08 02:16:15;;;;;;;16.13;8.27;;;2.90;99.90;;;;;;4999672;28;20458;-73
2023/12/08 02:18:42;;;;;;;16.40;8.60;;;2.80;99.90;;;;;;5003359;28;20479;-72
2023/12/08 02:21:08;;;;;;;17.63;8.97;;;2.90;99.90;;;;;;5004098;28;20545;-74
2023/12/08 02:23:35;;;;;;;15.17;8.50;;;2.90;99.90;;;;;;4987453;28;20532;-73
2023/12/08 02:26:02;;;;;;;15.93;8.07;;;2.90;99.90;;;;;;4987921;28;20519;-73
2023/12/08 02:28:28;;;;;;;17.63;9.23;;;2.90;99.90;;;;;;5008507;28;20463;-73
2023/12/08 02:30:56;;;;;;;16.80;8.77;;;2.90;99.90;;;;;;4998327;28;20533;-74
2023/12/08 02:33:29;;;;;;;14.37;8.10;;;2.90;99.90;;;;;;5003605;28;20218;-74
2023/12/08 02:35:56;;;;;;;15.90;9.20;;;2.90;99.90;;;;;;5003760;28;21021;-73
2023/12/08 02:38:23;;;;;;;15.47;8.47;;;2.90;99.90;;;;;;5002098;28;20447;-74
2023/12/08 02:40:49;;;;;;;16.17;8.63;;;2.90;99.90;;;;;;5005197;28;20450;-73
2023/12/08 02:43:15;;;;;;;18.07;9.20;;;2.90;99.90;;;;;;4997990;28;20433;-74
2023/12/08 02:45:40;;;;;;;13.63;8.67;;;2.90;99.90;;;;;;4988891;28;20242;-73
2023/12/08 02:48:06;;;;;;;16.77;9.07;;;2.90;99.90;;;;;;5003491;28;20472;-74
2023/12/08 02:50:32;;;;;;;15.30;7.50;;;2.90;99.90;;;;;;5006333;28;20298;-74
2023/12/08 02:52:57;;;;;;;14.07;8.20;;;2.90;99.90;;;;;;5009388;28;20228;-74
2023/12/08 02:55:23;;;;;;;14.20;8.77;;;2.90;99.90;;;;;;5002454;28;20268;-73
2023/12/08 02:57:49;;;;;;;15.20;9.07;;;2.90;99.90;;;;;;4991470;28;20215;-74
2023/12/08 03:00:15;;;;;;;16.60;7.97;;;2.90;99.90;;;;;;5001154;28;20217;-74
2023/12/08 03:02:40;;;;;;;17.87;9.17;;;2.90;99.90;;;;;;4987761;28;20235;-74
2023/12/08 03:05:07;;;;;;;18.13;9.40;;;2.90;99.90;;;;;;5000467;28;20233;-74
2023/12/08 03:07:33;;;;;;;15.83;8.27;;;2.90;99.90;;;;;;4988572;28;20212;-74
2023/12/08 03:09:59;;;;;;;12.67;7.33;;;2.90;99.90;;;;;;5005818;28;20454;-74
2023/12/08 03:12:25;;;;;;;17.07;9.83;;;2.90;99.90;;;;;;5003042;28;20452;-74
2023/12/08 03:14:50;;;;;;;13.97;8.83;;;2.90;99.90;;;;;;4997298;28;20293;-74
2023/12/08 03:17:16;;;;;;;14.13;9.07;;;2.90;99.90;;;;;;5016004;28;20716;-74
2023/12/08 03:19:41;;;;;;;15.47;8.23;;;2.90;99.90;;;;;;5005821;28;20226;-73
2023/12/08 03:22:07;;;;;;;20.73;9.40;;;3.00;99.90;;;;;;4994201;28;20600;-74
2023/12/08 03:24:33;;;;;;;17.07;9.23;;;2.90;99.90;;;;;;4981214;28;20250;-74
2023/12/08 03:26:59;;;;;;;15.23;8.53;;;3.00;99.90;;;;;;5006037;28;20484;-74
2023/12/08 03:29:24;;;;;;;11.07;7.00;;;2.90;99.90;;;;;;5016964;28;20218;-74
2023/12/08 03:31:50;;;;;;;18.90;9.87;;;2.90;99.90;;;;;;4995029;28;20206;-74
2023/12/08 03:34:16;;;;;;;15.17;8.60;;;2.90;99.90;;;;;;4994884;28;20217;-73
2023/12/08 03:36:41;;;;;;;13.80;8.60;;;2.90;99.90;;;;;;5001243;28;20214;-73
2023/12/08 03:39:07;;;;;;;13.60;9.43;;;2.90;99.90;;;;;;5005865;28;20233;-74
2023/12/08 03:41:32;;;;;;;16.37;9.70;;;2.90;99.90;;;;;;4990534;28;20255;-73
2023/12/08 03:43:58;;;;;;;21.63;10.50;;;2.90;99.90;;;;;;4997306;28;20226;-74
2023/12/08 03:46:24;;;;;;;17.97;9.10;;;2.90;99.90;;;;;;4995942;28;20354;-74
2023/12/08 03:48:49;;;;;;;17.90;9.13;;;2.90;99.90;;;;;;4994052;28;20215;-74
2023/12/08 03:51:15;;;;;;;15.70;8.43;;;2.90;99.90;;;;;;4998259;28;20301;-74
2023/12/08 03:53:41;;;;;;;14.37;8.23;;;2.90;99.90;;;;;;5001864;28;20301;-73
2023/12/08 03:56:07;;;;;;;16.00;9.67;;;2.90;99.90;;;;;;5004759;28;20221;-74
2023/12/08 03:58:33;;;;;;;20.83;10.37;;;2.90;99.90;;;;;;5007502;28;20221;-74
2023/12/08 04:00:58;;;;;;;17.20;8.73;;;2.90;99.90;;;;;;5004048;28;20467;-73
2023/12/08 04:03:24;;;;;;;19.03;9.80;;;2.90;99.90;;;;;;4999501;28;20515;-74
2023/12/08 04:05:50;;;;;;;18.27;8.30;;;2.90;99.90;;;;;;4996509;28;20227;-74
2023/12/08 04:08:16;;;;;;;15.90;9.60;;;2.90;99.90;;;;;;5015432;28;20233;-74
2023/12/08 04:10:41;;;;;;;17.77;9.83;;;2.90;99.90;;;;;;5005451;28;20218;-74
2023/12/08 04:13:07;;;;;;;18.57;8.90;;;2.90;99.90;;;;;;5001278;28;20491;-74
2023/12/08 04:15:33;;;;;;;15.67;8.50;;;3.00;99.90;;;;;;4987551;28;20217;-73
2023/12/08 04:17:59;;;;;;;18.77;8.70;;;3.00;99.90;;;;;;4992746;28;20214;-73
2023/12/08 04:20:24;;;;;;;13.87;8.50;;;3.00;99.90;;;;;;4997348;28;20225;-74
2023/12/08 04:22:50;;;;;;;14.53;8.53;;;3.00;99.90;;;;;;4991031;28;20218;-74
2023/12/08 04:25:16;;;;;;;22.13;10.47;;;3.00;99.90;;;;;;4995885;28;20213;-74
2023/12/08 04:27:41;;;;;;;15.33;8.40;;;3.00;99.90;;;;;;4997742;28;20742;-73
2023/12/08 04:30:07;;;;;;;21.30;9.40;;;3.00;99.90;;;;;;5006647;28;20246;-74
2023/12/08 04:32:35;;;;;;;20.07;9.67;;;3.00;99.90;;;;;;5006090;28;20351;-74
2023/12/08 04:35:01;;;;;;;17.33;9.33;;;3.00;99.90;;;;;;4998186;28;20806;-74
2023/12/08 04:37:27;;;;;;;17.20;8.67;;;2.90;99.90;;;;;;4997639;28;20468;-74
2023/12/08 04:39:53;;;;;;;17.63;9.97;;;3.00;99.90;;;;;;4998777;28;20708;-73
2023/12/08 04:42:18;;;;;;;14.30;8.67;;;2.90;99.90;;;;;;4988839;28;20455;-74
2023/12/08 04:44:44;;;;;;;14.53;8.67;;;2.90;99.90;;;;;;5007727;28;20217;-74
2023/12/08 04:47:10;;;;;;;16.23;9.90;;;2.90;99.90;;;;;;5004884;28;20233;-74
2023/12/08 04:49:36;;;;;;;15.13;8.50;;;2.90;99.90;;;;;;5006236;28;20241;-74
2023/12/08 04:52:02;;;;;;;12.80;7.97;;;2.90;99.90;;;;;;5005454;28;20272;-73
2023/12/08 04:54:28;;;;;;;15.57;9.70;;;2.90;99.90;;;;;;4991203;28;20656;-74
2023/12/08 04:56:54;;;;;;;18.67;10.60;;;2.90;99.90;;;;;;5005830;28;20532;-74
2023/12/08 04:59:19;;;;;;;17.87;9.30;;;2.90;99.90;;;;;;5002358;28;20225;-74
2023/12/08 05:01:52;;;;;;;20.07;10.40;;;2.90;99.90;;;;;;5005515;28;20252;-74
2023/12/08 05:04:21;;;;;;;16.73;9.33;;;2.90;99.90;;;;;;4992169;28;20229;-74
2023/12/08 05:06:47;;;;;;;18.73;10.27;;;3.00;99.90;;;;;;4994443;28;20470;-75
2023/12/08 05:09:13;;;;;;;19.00;9.90;;;2.90;99.90;;;;;;5000853;28;20468;-74
2023/12/08 05:11:38;;;;;;;17.17;8.67;;;2.90;99.90;;;;;;5001398;28;20579;-74
2023/12/08 05:14:04;;;;;;;14.10;9.80;;;2.90;99.90;;;;;;5002073;28;20763;-73
2023/12/08 05:16:30;;;;;;;16.47;8.60;;;2.90;99.90;;;;;;5007521;28;20234;-74
2023/12/08 05:18:56;;;;;;;17.50;9.40;;;2.90;99.90;;;;;;5001631;28;20309;-74
2023/12/08 05:21:22;;;;;;;18.80;9.63;;;3.00;99.90;;;;;;4995343;28;20517;-74
2023/12/08 05:23:48;;;;;;;16.77;10.20;;;2.90;99.90;;;;;;5013582;28;20218;-74
2023/12/08 05:26:13;;;;;;;15.97;9.30;;;2.90;99.90;;;;;;5007128;28;20241;-73
2023/12/08 05:28:39;;;;;;;21.80;9.57;;;3.00;99.90;;;;;;5002162;28;20468;-74
2023/12/08 05:31:05;;;;;;;16.73;9.80;;;2.90;99.90;;;;;;4996504;28;20281;-74
2023/12/08 05:33:31;;;;;;;14.83;8.50;;;2.90;99.90;;;;;;5002153;28;20219;-74
2023/12/08 05:35:57;;;;;;;17.57;7.97;;;2.90;99.90;;;;;;5005680;28;20458;-74
2023/12/08 05:38:22;;;;;;;12.77;8.70;;;2.90;99.90;;;;;;5005193;28;20214;-74
2023/12/08 05:40:48;;;;;;;15.70;8.73;;;2.90;99.90;;;;;;4998398;28;20237;-74
2023/12/08 05:43:14;;;;;;;14.37;9.10;;;2.90;99.90;;;;;;4999056;28;20298;-74
2023/12/08 05:45:39;;;;;;;15.50;8.70;;;2.90;99.90;;;;;;5000716;28;20315;-73
2023/12/08 05:48:05;;;;;;;13.50;8.53;;;2.90;99.90;;;;;;5007373;28;20222;-74
2023/12/08 05:50:31;;;;;;;17.10;9.47;;;2.90;99.90;;;;;;4997848;28;20210;-75
2023/12/08 05:52:57;;;;;;;19.43;9.77;;;2.90;99.90;;;;;;4998507;28;21029;-74
2023/12/08 05:55:23;;;;;;;17.83;8.87;;;2.90;99.90;;;;;;5003463;28;20218;-74
2023/12/08 05:57:48;;;;;;;20.90;10.50;;;2.90;99.90;;;;;;4986818;28;20301;-74
2023/12/08 06:00:18;;;;;;;16.53;8.93;;;2.90;99.90;;;;;;4993006;28;20551;-74
2023/12/08 06:02:44;;;;;;;22.90;10.40;;;2.90;99.90;;;;;;5004256;28;20217;-74
2023/12/08 06:05:12;;;;;;;17.23;10.30;;;3.00;99.90;;;;;;4996239;28;20476;-74
2023/12/08 06:07:38;;;;;;;13.87;9.00;;;2.90;99.90;;;;;;5003265;28;20515;-74
2023/12/08 06:10:06;;;;;;;19.37;9.73;;;2.90;99.90;;;;;;4998876;28;20487;-74
2023/12/08 06:12:31;;;;;;;15.63;9.60;;;3.00;99.90;;;;;;5000115;28;20500;-73
2023/12/08 06:15:00;;;;;;;15.47;9.67;;;2.90;99.90;;;;;;5000382;28;20489;-74
2023/12/08 06:17:27;;;;;;;20.03;10.50;;;2.90;99.90;;;;;;5010234;28;20284;-73
2023/12/08 06:19:53;;;;;;;15.97;8.80;;;3.00;99.90;;;;;;5003980;28;20480;-75
2023/12/08 06:22:18;;;;;;;18.90;9.80;;;3.00;99.90;;;;;;4997526;28;20465;-74
2023/12/08 06:24:44;;;;;;;18.43;10.20;;;3.00;99.90;;;;;;4987388;28;20457;-74
2023/12/08 06:27:10;;;;;;;17.57;9.57;;;2.90;99.90;;;;;;5003771;28;20226;-74
2023/12/08 06:29:36;;;;;;;20.23;11.03;;;3.00;99.90;;;;;;5007770;28;20228;-74
2023/12/08 06:32:01;;;;;;;16.97;8.73;;;2.90;99.90;;;;;;5007448;28;20457;-74
2023/12/08 06:34:27;;;;;;;17.77;9.67;;;3.00;99.90;;;;;;5004177;28;20272;-74
2023/12/08 06:36:52;;;;;;;24.00;12.67;;;2.90;99.90;;;;;;4995958;28;20302;-74
2023/12/08 06:39:18;;;;;;;15.77;10.80;;;2.90;99.90;;;;;;4999685;28;20229;-74
2023/12/08 06:41:44;;;;;;;21.93;11.70;;;2.90;99.90;;;;;;5007813;28;20297;-74
2023/12/08 06:44:10;;;;;;;14.43;10.00;;;2.90;99.90;;;;;;4989909;28;20248;-74
2023/12/08 06:46:36;;;;;;;20.40;11.70;;;2.90;99.90;;;;;;4999295;28;20693;-74
2023/12/08 06:49:01;;;;;;;22.10;12.53;;;2.90;99.90;;;;;;5008375;28;20461;-74
2023/12/08 06:51:28;;;;;;;19.60;11.20;;;2.90;99.90;;;;;;4998205;28;20544;-73
2023/12/08 06:53:54;;;;;;;17.23;10.50;;;2.90;99.90;;;;;;4995794;28;20219;-74
2023/12/08 06:56:21;;;;;;;19.30;9.97;;;2.90;99.90;;;;;;4991457;28;20472;-74
2023/12/08 06:58:48;;;;;;;15.00;9.40;;;2.90;99.90;;;;;;5005414;28;20293;-73
2023/12/08 07:01:13;;;;;;;19.50;10.20;;;2.90;99.90;;;;;;5000846;28;20499;-74
2023/12/08 07:03:39;;;;;;;18.70;9.87;;;2.90;99.90;;;;;;4997983;28;20480;-73
2023/12/08 07:06:05;;;;;;;17.60;10.60;;;2.90;99.90;;;;;;4999851;28;20224;-73
2023/12/08 07:08:30;;;;;;;19.07;11.40;;;2.90;99.90;;;;;;4999656;28;20222;-74
2023/12/08 07:10:56;;;;;;;20.83;12.10;;;2.90;99.90;;;;;;4998718;28;20214;-74
2023/12/08 07:13:22;;;;;;;23.23;11.80;;;2.90;99.90;;;;;;5018667;28;20221;-74
2023/12/08 07:15:48;;;;;;;17.47;11.27;;;2.90;99.90;;;;;;4995352;28;20223;-73
2023/12/08 07:18:14;;;;;;;20.50;12.27;;;2.90;99.90;;;;;;4988902;28;20441;-74
2023/12/08 07:20:39;;;;;;;18.90;11.40;;;2.90;99.90;;;;;;5002540;28;20234;-74
2023/12/08 07:23:05;;;;;;;16.23;9.97;;;2.90;99.90;;;;;;4990980;28;20219;-74
2023/12/08 07:25:32;;;;;;;18.60;11.40;;;2.90;99.90;;;;;;5000537;28;20226;-74
2023/12/08 07:27:57;;;;;;;17.13;10.10;;;2.90;99.90;;;;;;5004775;28;20637;-73
2023/12/08 07:30:23;;;;;;;15.80;9.77;;;3.00;99.90;;;;;;5003200;28;20457;-74
2023/12/08 07:32:49;;;;;;;15.87;10.03;;;2.90;99.90;;;;;;5000582;28;20272;-73
2023/12/08 07:35:15;;;;;;;19.87;9.57;;;3.00;99.90;;;;;;5003684;28;20739;-72
2023/12/08 07:37:41;;;;;;;15.47;9.57;;;3.00;99.90;;;;;;5003250;28;20472;-73
2023/12/08 07:40:09;;;;;;;24.17;13.37;;;3.00;99.90;;;;;;5004004;28;20341;-73
2023/12/08 07:42:36;;;;;;;27.00;14.20;;;2.90;99.90;;;;;;4997640;28;20475;-73
2023/12/08 07:45:04;;;;;;;23.30;13.70;;;3.00;99.90;;;;;;4998605;28;20581;-73
2023/12/08 07:47:30;;;;;;;24.40;13.30;;;3.00;99.90;;;;;;5003815;28;20441;-73
2023/12/08 07:49:56;;;;;;;21.37;13.30;;;3.00;99.90;;;;;;4999811;28;21012;-73
2023/12/08 07:52:21;;;;;;;23.27;15.03;;;3.00;99.90;;;;;;4989096;28;20226;-72
2023/12/08 07:54:47;;;;;;;20.40;11.33;;;3.00;99.90;;;;;;5000053;28;20226;-73
2023/12/08 07:57:13;;;;;;;23.30;11.47;;;2.90;99.90;;;;;;4999976;28;20241;-72
2023/12/08 07:59:38;;;;;;;20.03;10.77;;;3.00;99.90;;;;;;4992402;28;20218;-73
2023/12/08 08:02:04;;;;;;;19.67;10.03;;;3.00;99.90;;;;;;5007324;28;20253;-74
2023/12/08 08:04:30;;;;;;;13.63;8.80;;;2.90;99.90;;;;;;5008275;28;20275;-73
2023/12/08 08:06:56;;;;;;;17.47;8.87;;;3.00;99.90;;;;;;4996980;28;20445;-74
2023/12/08 08:09:22;;;;;;;17.90;9.27;;;2.90;99.90;;;;;;5003458;28;20222;-72
2023/12/08 08:11:48;;;;;;;26.43;8.97;;;3.00;99.90;;;;;;5004309;28;20226;-73
2023/12/08 08:14:14;;;;;;;17.33;9.17;;;3.00;99.90;;;;;;4999245;28;20445;-73
2023/12/08 08:16:39;;;;;;;15.50;9.27;;;3.00;99.90;;;;;;5001205;28;20221;-74
2023/12/08 08:19:05;;;;;;;15.67;9.27;;;3.00;99.90;;;;;;4989918;28;20256;-74
2023/12/08 08:21:31;;;;;;;18.83;10.40;;;2.90;99.90;;;;;;5001235;28;20221;-73
2023/12/08 08:23:56;;;;;;;19.27;9.40;;;2.90;99.90;;;;;;5003436;28;20219;-73
2023/12/08 08:26:24;;;;;;;17.07;9.17;;;2.90;99.90;;;;;;5001356;28;20581;-73
2023/12/08 08:28:49;;;;;;;18.07;9.67;;;2.90;99.90;;;;;;5010839;28;20694;-73
2023/12/08 08:31:18;;;;;;;20.07;9.93;;;2.90;99.90;;;;;;5010791;28;20535;-73
2023/12/08 08:33:44;;;;;;;21.37;10.00;;;2.90;99.90;;;;;;5002219;28;20700;-74
2023/12/08 08:36:11;;;;;;;19.17;11.20;;;2.90;99.90;;;;;;4991484;28;20554;-73
2023/12/08 08:38:37;;;;;;;18.70;11.03;;;3.00;99.90;;;;;;4992460;28;20456;-73
2023/12/08 08:41:03;;;;;;;18.17;10.17;;;3.00;99.90;;;;;;5007405;28;20522;-74
2023/12/08 08:43:29;;;;;;;24.10;11.40;;;3.00;99.90;;;;;;4999872;28;20547;-72
2023/12/08 08:45:55;;;;;;;21.10;11.03;;;3.00;99.90;;;;;;5009994;28;20540;-73
2023/12/08 08:48:20;;;;;;;17.07;10.53;;;3.00;99.90;;;;;;5013411;28;20213;-73
2023/12/08 08:50:48;;;;;;;22.17;11.77;;;3.00;99.90;;;;;;5004223;28;20674;-73
2023/12/08 08:53:16;;;;;;;24.80;13.70;;;3.00;99.90;;;;;;5006773;28;20214;-73
2023/12/08 08:55:43;;;;;;;30.97;15.27;;;3.00;99.90;;;;;;5006825;28;20453;-73
2023/12/08 08:58:09;;;;;;;30.37;16.83;;;3.00;99.90;;;;;;4996840;28;20461;-74
2023/12/08 09:00:35;;;;;;;30.77;15.30;;;3.10;99.90;;;;;;5007219;28;20974;-74
2023/12/08 09:03:01;;;;;;;29.43;12.67;;;3.00;99.90;;;;;;4992511;28;20222;-75
2023/12/08 09:05:27;;;;;;;20.40;12.27;;;3.00;99.90;;;;;;5007499;28;20232;-73
2023/12/08 09:07:53;;;;;;;17.37;11.23;;;3.00;99.90;;;;;;5000338;28;20520;-74
2023/12/08 09:10:19;;;;;;;22.60;11.87;;;3.00;99.90;;;;;;5002591;28;20519;-74
2023/12/08 09:12:45;;;;;;;22.47;11.20;;;3.10;99.90;;;;;;4992707;28;20453;-74
2023/12/08 09:15:12;;;;;;;22.03;11.30;;;3.10;99.90;;;;;;5002802;28;20321;-74
2023/12/08 09:17:38;;;;;;;16.70;11.70;;;3.00;99.90;;;;;;4991450;28;20684;-73
2023/12/08 09:20:12;;;;;;;22.33;12.40;;;3.10;99.90;;;;;;5008355;28;20468;-74
2023/12/08 09:22:37;;;;;;;17.40;9.97;;;3.10;99.90;;;;;;4990406;28;20237;-74
2023/12/08 09:25:03;;;;;;;24.23;12.80;;;3.10;99.90;;;;;;5006440;28;20574;-74
2023/12/08 09:27:29;;;;;;;22.17;10.90;;;3.10;99.90;;;;;;5008013;28;20265;-72
2023/12/08 09:29:55;;;;;;;24.53;13.50;;;3.10;99.90;;;;;;4994800;28;20313;-73
2023/12/08 09:32:20;;;;;;;21.50;11.93;;;3.10;99.90;;;;;;4991805;28;20249;-73
2023/12/08 09:34:46;;;;;;;18.67;11.70;;;3.10;99.90;;;;;;4994677;28;20223;-73
2023/12/08 09:37:12;;;;;;;22.70;12.40;;;3.10;99.90;;;;;;5006266;28;20226;-73
2023/12/08 09:39:37;;;;;;;19.17;10.30;;;3.20;99.90;;;;;;4997265;28;20227;-73
2023/12/08 09:42:08;;;;;;;17.50;10.50;;;3.20;99.90;;;;;;5003769;28;20311;-74
2023/12/08 09:44:34;;;;;;;17.97;9.73;;;3.10;99.90;;;;;;5009045;28;20222;-73
2023/12/08 09:47:03;;;;;;;20.47;10.20;;;3.10;99.90;;;;;;5000575;28;20481;-74
2023/12/08 09:49:35;;;;;;;21.10;11.60;;;3.20;99.90;;;;;;5008860;28;20456;-73
2023/12/08 09:52:01;;;;;;;21.13;11.17;;;3.10;99.90;;;;;;5000010;28;20545;-74
2023/12/08 09:54:28;;;;;;;20.20;11.20;;;3.10;99.90;;;;;;5007132;28;20524;-73
2023/12/08 09:56:54;;;;;;;27.30;11.90;;;3.20;99.90;;;;;;5001107;28;20242;-74
2023/12/08 09:59:24;;;;;;;22.80;10.97;;;3.20;99.90;;;;;;4998917;28;20477;-72
2023/12/08 10:01:50;;;;;;;18.80;10.77;;;3.20;99.90;;;;;;5005606;28;21002;-72
2023/12/08 10:04:17;;;;;;;23.90;12.17;;;3.20;99.90;;;;;;5002260;28;20562;-74
2023/12/08 10:06:43;;;;;;;22.17;11.40;;;3.20;99.90;;;;;;5004411;28;20606;-72
2023/12/08 10:09:11;;;;;;;21.30;12.70;;;3.20;99.90;;;;;;5008059;28;20456;-74
2023/12/08 10:11:38;;;;;;;16.33;10.83;;;3.20;99.90;;;;;;4999796;28;20455;-73
2023/12/08 10:14:05;;;;;;;26.20;11.07;;;3.20;99.90;;;;;;4998934;28;20459;-74
2023/12/08 10:16:31;;;;;;;18.27;10.70;;;3.20;99.90;;;;;;5003347;28;20489;-73
2023/12/08 10:19:07;;;;;;;20.90;10.20;;;3.20;99.90;;;;;;4996809;28;20469;-74
2023/12/08 10:21:36;;;;;;;28.23;14.27;;;3.20;99.90;;;;;;4989484;28;20232;-74
2023/12/08 10:24:03;;;;;;;57.80;25.27;;;3.20;99.90;;;;;;4989155;28;20452;-74
2023/12/08 10:26:30;;;;;;;58.27;30.10;;;3.20;99.90;;;;;;5005369;28;20528;-73
2023/12/08 10:28:57;;;;;;;40.90;23.57;;;3.20;99.90;;;;;;4998285;28;20445;-74
2023/12/08 10:31:23;;;;;;;35.30;20.33;;;3.20;99.90;;;;;;4983428;28;20453;-73
2023/12/08 10:33:50;;;;;;;28.00;17.00;;;3.20;99.90;;;;;;4998737;28;21002;-74
2023/12/08 10:36:16;;;;;;;23.90;14.57;;;3.20;99.90;;;;;;4999070;28;20616;-73
2023/12/08 10:38:42;;;;;;;30.87;15.03;;;3.20;99.90;;;;;;5007519;28;20865;-73
2023/12/08 10:41:11;;;;;;;21.27;11.47;;;3.20;99.90;;;;;;4985920;28;20464;-74
2023/12/08 10:43:40;;;;;;;24.40;13.40;;;3.20;99.90;;;;;;4993734;28;20242;-73
2023/12/08 10:46:07;;;;;;;19.40;11.03;;;3.20;99.90;;;;;;5004212;28;20446;-74
2023/12/08 10:48:35;;;;;;;22.80;12.20;;;3.20;99.90;;;;;;5000464;28;20457;-73
2023/12/08 10:51:01;;;;;;;21.60;10.93;;;3.20;99.90;;;;;;5008803;28;20445;-73
2023/12/08 10:53:27;;;;;;;17.97;10.83;;;3.20;99.90;;;;;;5014085;28;20465;-74
2023/12/08 10:56:15;;;;;;;20.67;11.70;;;3.20;99.90;;;;;;4998382;28;20541;-74
2023/12/08 10:58:44;;;;;;;15.53;10.47;;;3.20;99.90;;;;;;4997853;28;20461;-74
2023/12/08 11:01:14;;;;;;;23.50;11.83;;;3.20;99.90;;;;;;5002634;28;20507;-74
2023/12/08 11:03:42;;;;;;;18.83;10.60;;;3.20;99.90;;;;;;5006922;28;20870;-74
2023/12/08 11:06:14;;;;;;;22.90;11.17;;;3.20;99.90;;;;;;4992701;28;20457;-74
2023/12/08 11:08:44;;;;;;;19.70;11.07;;;3.20;99.90;;;;;;5020402;28;20457;-75
2023/12/08 11:11:12;;;;;;;23.40;14.10;;;3.20;99.90;;;;;;5001311;28;20569;-74
2023/12/08 11:13:43;;;;;;;24.03;12.50;;;3.20;99.90;;;;;;4992785;28;20449;-74
2023/12/08 11:16:29;;;;;;;20.17;11.70;;;3.20;99.90;;;;;;4998980;28;20536;-74
2023/12/08 11:18:56;;;;;;;28.33;13.33;;;3.20;99.90;;;;;;5002585;28;20468;-74
2023/12/08 11:21:22;;;;;;;24.80;14.43;;;3.10;99.90;;;;;;5000293;28;20441;-74
2023/12/08 11:23:49;;;;;;;25.13;16.10;;;3.20;99.90;;;;;;5000470;28;20464;-74
2023/12/08 11:26:26;;;;;;;25.07;15.30;;;3.20;99.90;;;;;;4999458;28;20897;-74
2023/12/08 11:29:23;;;;;;;21.70;12.70;;;3.30;99.90;;;;;;5005269;28;20446;-75
2023/12/08 11:31:54;;;;;;;22.00;11.80;;;3.30;99.90;;;;;;5001067;28;20544;-74
2023/12/08 11:34:26;;;;;;;21.03;12.80;;;3.30;99.90;;;;;;5004988;28;20459;-73
2023/12/08 11:36:51;;;;;;;24.80;13.07;;;3.30;99.90;;;;;;4982844;28;20489;-74
2023/12/08 11:39:46;;;;;;;22.03;10.87;;;3.30;99.90;;;;;;4989825;28;20493;-73
2023/12/08 11:42:18;;;;;;;18.23;10.80;;;3.30;99.90;;;;;;4988940;28;20253;-74
2023/12/08 11:44:45;;;;;;;24.17;12.80;;;3.30;99.90;;;;;;5007429;28;20504;-74
2023/12/08 11:47:16;;;;;;;23.80;12.20;;;3.40;99.90;;;;;;4995835;28;20480;-73
2023/12/08 11:49:44;;;;;;;24.73;12.57;;;3.40;99.90;;;;;;5007315;28;20456;-74
2023/12/08 11:52:25;;;;;;;20.43;10.00;;;3.40;99.90;;;;;;5001413;28;20454;-73
2023/12/08 11:55:00;;;;;;;18.23;9.77;;;3.40;99.90;;;;;;4988242;28;20462;-74
2023/12/08 11:57:27;;;;;;;24.10;11.27;;;3.40;99.90;;;;;;5025316;28;20481;-74
2023/12/08 11:59:56;;;;;;;18.87;11.07;;;3.40;99.90;;;;;;4991362;28;20469;-74
2023/12/08 12:02:25;;;;;;;19.67;10.40;;;3.40;99.90;;;;;;5004460;28;20476;-74
2023/12/08 12:04:51;;;;;;;19.00;10.90;;;3.40;99.90;;;;;;4994384;28;20472;-74
2023/12/08 12:07:19;;;;;;;27.80;12.10;;;3.40;99.90;;;;;;4995729;28;20465;-74
2023/12/08 12:09:50;;;;;;;22.27;13.70;;;3.40;99.90;;;;;;4998680;28;20458;-74
2023/12/08 12:12:24;;;;;;;24.90;11.53;;;3.40;99.90;;;;;;5006087;28;20503;-73
2023/12/08 12:14:55;;;;;;;23.67;11.07;;;3.40;99.90;;;;;;4997909;28;20465;-73
2023/12/08 12:17:22;;;;;;;22.07;11.40;;;3.40;99.90;;;;;;5000510;28;20465;-74
2023/12/08 12:19:50;;;;;;;26.23;11.57;;;3.40;99.90;;;;;;5005416;28;20472;-73
2023/12/08 12:22:16;;;;;;;25.53;12.60;;;3.40;99.90;;;;;;5006443;28;20461;-75
2023/12/08 12:24:41;;;;;;;19.23;12.57;;;3.40;99.90;;;;;;4990654;28;20468;-74
2023/12/08 12:27:07;;;;;;;28.43;12.90;;;3.40;99.90;;;;;;4994352;28;20601;-75
2023/12/08 12:29:33;;;;;;;32.23;14.37;;;3.40;99.90;;;;;;4995002;28;20238;-74
2023/12/08 12:32:00;;;;;;;24.07;12.50;;;3.40;99.90;;;;;;4995635;28;20486;-75
2023/12/08 12:34:25;;;;;;;30.63;13.77;;;3.40;99.90;;;;;;4998637;28;20626;-74
2023/12/08 12:36:51;;;;;;;29.80;13.37;;;3.40;99.90;;;;;;4996817;28;20519;-74
2023/12/08 12:39:17;;;;;;;26.77;12.70;;;3.40;99.90;;;;;;4996784;28;20313;-74
2023/12/08 12:41:43;;;;;;;26.10;10.93;;;3.40;99.90;;;;;;4990649;28;20213;-75